Time;durP1;ratioP1;P1;durP2;ratioP2;P2;SDS_P1;SDS_P2;PMS_P1;PMS_P2;Temp;Humidity;BMP_temperature;BMP_pressure;BME280_temperature;BME280_humidity;BME280_pressure;Samples;Min_cycle;Max_cycle;Signal;HPM_P1;HPM_P2
2022/11/29 00:00:00;;;;;;;;;;;;;;;21.68;37.96;95294.88;6112949;19;1780;-64
2022/11/29 00:02:03;;;;;;;;;;;;;;;21.73;37.93;95290.72;6113894;19;2033;-64
2022/11/29 00:04:07;;;;;;;;;;;;;;;21.75;37.93;95302.03;6099324;19;1361;-64
2022/11/29 00:06:12;;;;;;;;;;;;;;;21.73;37.81;95296.91;6092689;19;2081;-64
2022/11/29 00:08:18;;;;;;;;;;;;;;;21.73;37.62;95301.44;6105262;19;2042;-64
2022/11/29 00:10:22;;;;;;;;;;;;;;;21.70;37.58;95296.50;6109074;19;1987;-64
2022/11/29 00:12:22;;;;;;;;;;;;;;;21.70;37.82;95293.84;6109512;19;2060;-64
2022/11/29 00:14:27;;;;;;;;;;;;;;;21.72;37.47;95305.16;6110096;19;2004;-65
2022/11/29 00:16:30;;;;;;;;;;;;;;;21.69;37.60;95306.38;6081974;19;2057;-64
2022/11/29 00:18:33;;;;;;;;;;;;;;;21.67;37.44;95311.13;6101257;19;1182;-64
2022/11/29 00:20:37;;;;;;;;;;;;;;;21.69;37.58;95309.06;6106260;19;2024;-64
2022/11/29 00:22:40;;;;;;;;;;;;;;;21.70;37.54;95305.34;6110078;19;1887;-64
2022/11/29 00:24:46;;;;;;;;;;;;;;;21.70;37.54;95312.56;6108348;19;1917;-64
2022/11/29 00:26:50;;;;;;;;;;;;;;;21.70;37.67;95312.56;6094885;19;2040;-64
2022/11/29 00:28:53;;;;;;;;;;;;;;;21.62;38.03;95311.75;6088622;19;2136;-64
2022/11/29 00:30:57;;;;;;;;;;;;;;;21.66;37.61;95312.97;6106942;19;1946;-65
2022/11/29 00:33:01;;;;;;;;;;;;;;;21.68;37.69;95304.72;6107155;19;2033;-65
2022/11/29 00:35:05;;;;;;;;;;;;;;;21.67;37.67;95306.59;6107968;19;2065;-64
2022/11/29 00:37:08;;;;;;;;;;;;;;;21.68;37.70;95310.06;6105648;19;2049;-65
2022/11/29 00:39:12;;;;;;;;;;;;;;;21.68;37.60;95308.25;6073665;19;1642;-64
2022/11/29 00:41:18;;;;;;;;;;;;;;;21.65;37.51;95313.16;6107374;19;2012;-64
2022/11/29 00:43:21;;;;;;;;;;;;;;;21.65;37.40;95307.81;6105895;19;1136;-65
2022/11/29 00:45:24;;;;;;;;;;;;;;;21.64;37.78;95312.34;6108951;19;2026;-65
2022/11/29 00:47:28;;;;;;;;;;;;;;;21.67;37.61;95311.94;6106373;19;2021;-65
2022/11/29 00:49:31;;;;;;;;;;;;;;;21.65;37.39;95308.66;6089650;19;1851;-64
2022/11/29 00:51:34;;;;;;;;;;;;;;;21.60;37.39;95303.13;6099655;19;2244;-64
2022/11/29 00:53:38;;;;;;;;;;;;;;;21.67;37.42;95314.59;6115023;19;1961;-64
2022/11/29 00:55:41;;;;;;;;;;;;;;;21.68;37.58;95310.91;6110607;19;2044;-65
2022/11/29 00:57:47;;;;;;;;;;;;;;;21.68;37.28;95308.25;6107457;19;2274;-65
2022/11/29 00:59:51;;;;;;;;;;;;;;;21.65;37.71;95311.34;6108241;19;2017;-64
2022/11/29 01:01:54;;;;;;;;;;;;;;;21.70;37.57;95307.19;6081832;19;2167;-64
2022/11/29 01:03:57;;;;;;;;;;;;;;;21.67;37.56;95303.91;6105875;19;1545;-63
2022/11/29 01:06:04;;;;;;;;;;;;;;;21.70;37.57;95301.84;6106061;19;1971;-64
2022/11/29 01:08:07;;;;;;;;;;;;;;;21.63;38.03;95301.88;6105583;19;1983;-65
2022/11/29 01:10:11;;;;;;;;;;;;;;;21.66;38.08;95301.47;6100662;19;2070;-64
2022/11/29 01:12:15;;;;;;;;;;;;;;;21.56;38.57;95296.53;6095434;19;2027;-65
2022/11/29 01:14:21;;;;;;;;;;;;;;;21.64;38.07;95290.97;6091873;19;2100;-65
2022/11/29 01:16:24;;;;;;;;;;;;;;;21.69;37.68;95301.03;6107724;19;2023;-64
2022/11/29 01:18:29;;;;;;;;;;;;;;;21.67;37.72;95293.22;6103618;19;1157;-65
2022/11/29 01:20:32;;;;;;;;;;;;;;;21.70;37.58;95296.50;6106819;19;2072;-64
2022/11/29 01:22:35;;;;;;;;;;;;;;;21.68;37.53;95305.56;6105719;19;2076;-65
2022/11/29 01:24:39;;;;;;;;;;;;;;;21.71;38.02;95292.78;6082066;19;2064;-65
2022/11/29 01:26:42;;;;;;;;;;;;;;;21.70;37.79;95293.84;6104435;19;1991;-66
2022/11/29 01:28:47;;;;;;;;;;;;;;;21.72;37.71;95305.16;6106861;19;1925;-65
2022/11/29 01:30:53;;;;;;;;;;;;;;;21.71;37.65;95290.94;6108847;19;2150;-64
2022/11/29 01:32:56;;;;;;;;;;;;;;;21.71;37.64;95292.78;6108184;19;2078;-64
2022/11/29 01:34:59;;;;;;;;;;;;;;;21.66;38.13;95288.91;6093411;19;2066;-65
2022/11/29 01:37:03;;;;;;;;;;;;;;;21.74;38.27;95289.69;6090590;19;2003;-63
2022/11/29 01:39:07;;;;;;;;;;;;;;;21.79;38.24;95288.03;6105954;19;1117;-64
2022/11/29 01:41:12;;;;;;;;;;;;;;;21.81;38.48;95287.81;6100129;19;2018;-64
2022/11/29 01:43:17;;;;;;;;;;;;;;;21.75;38.26;95281.47;6101056;19;2054;-63
2022/11/29 01:45:23;;;;;;;;;;;;;;;21.78;38.07;95281.03;6100802;19;2031;-63
2022/11/29 01:47:30;;;;;;;;;;;;;;;21.75;38.09;95277.97;6074070;19;2087;-63
2022/11/29 01:49:35;;;;;;;;;;;;;;;21.74;37.99;95276.31;6096096;19;1864;-64
2022/11/29 01:51:39;;;;;;;;;;;;;;;21.76;38.17;95279.59;6098518;19;2004;-63
2022/11/29 01:53:43;;;;;;;;;;;;;;;21.74;38.05;95270.97;6098733;19;1211;-63
2022/11/29 01:55:49;;;;;;;;;;;;;;;21.75;37.97;95273.44;6102189;19;1770;-62
2022/11/29 01:57:53;;;;;;;;;;;;;;;21.75;38.25;95267.28;6086631;19;2042;-63
2022/11/29 01:59:59;;;;;;;;;;;;;;;21.77;37.86;95266.03;6093147;19;2072;-63
2022/11/29 02:02:06;;;;;;;;;;;;;;;21.76;38.11;95266.22;6103128;19;2425;-63
2022/11/29 02:04:13;;;;;;;;;;;;;;;21.77;38.14;95267.84;6100256;19;2123;-63
2022/11/29 02:06:17;;;;;;;;;;;;;;;21.72;38.22;95267.69;6104127;19;2120;-63
2022/11/29 02:08:22;;;;;;;;;;;;;;;21.70;37.99;95264.41;6105231;19;2075;-63
2022/11/29 02:10:29;;;;;;;;;;;;;;;21.70;38.13;95261.72;6077090;19;2029;-63
2022/11/29 02:12:40;;;;;;;;;;;;;;;21.68;38.03;95260.09;6107520;19;2017;-63
2022/11/29 02:14:50;;;;;;;;;;;;;;;21.69;37.71;95258.25;6099500;19;2186;-63
2022/11/29 02:16:59;;;;;;;;;;;;;;;21.70;38.03;95259.88;6098761;19;2087;-63
2022/11/29 02:19:05;;;;;;;;;;;;;;;21.73;37.81;95258.63;6097614;19;1935;-62
2022/11/29 02:21:22;;;;;;;;;;;;;;;21.68;37.71;95260.09;6071213;19;2049;-63
2022/11/29 02:23:38;;;;;;;;;;;;;;;21.65;38.42;95268.56;6094547;19;2072;-63
2022/11/29 02:25:51;;;;;;;;;;;;;;;21.66;38.21;95259.50;6096539;19;1876;-63
2022/11/29 02:28:12;;;;;;;;;;;;;;;21.66;38.08;95264.84;6097265;19;2042;-63
2022/11/29 02:30:22;;;;;;;;;;;;;;;21.64;37.89;95261.53;6094993;19;1939;-63
2022/11/29 02:32:45;;;;;;;;;;;;;;;21.65;37.85;95262.34;6087639;19;2467;-63
2022/11/29 02:34:55;;;;;;;;;;;;;;;21.65;37.96;95259.69;6094585;19;2079;-63
2022/11/29 02:37:05;;;;;;;;;;;;;;;21.63;38.23;95253.75;6098345;19;2422;-63
2022/11/29 02:39:14;;;;;;;;;;;;;;;21.61;38.36;95261.97;6098262;19;2026;-63
2022/11/29 02:41:24;;;;;;;;;;;;;;;21.61;38.34;95267.31;6098031;19;2059;-62
2022/11/29 02:43:42;;;;;;;;;;;;;;;21.62;38.12;95268.94;6083821;19;2116;-62
2022/11/29 02:45:57;;;;;;;;;;;;;;;21.64;37.91;95272.25;6084544;19;2092;-62
2022/11/29 02:48:12;;;;;;;;;;;;;;;21.65;38.11;95271.22;6093703;19;2046;-64
2022/11/29 02:50:21;;;;;;;;;;;;;;;21.68;37.70;95267.28;6095922;19;2471;-63
2022/11/29 02:52:30;;;;;;;;;;;;;;;21.66;37.98;95272.88;6102521;19;2052;-64
2022/11/29 02:54:39;;;;;;;;;;;;;;;21.66;37.89;95275.53;6095835;19;1125;-63
2022/11/29 02:56:46;;;;;;;;;;;;;;;21.66;38.07;95274.72;6084013;19;2087;-63
2022/11/29 02:58:52;;;;;;;;;;;;;;;21.67;37.92;95271.00;6100579;19;2099;-63
2022/11/29 03:01:00;;;;;;;;;;;;;;;21.69;38.20;95268.94;6099393;19;2083;-63
2022/11/29 03:03:13;;;;;;;;;;;;;;;21.66;38.15;95272.03;6095223;19;1923;-63
2022/11/29 03:05:20;;;;;;;;;;;;;;;21.64;37.74;95264.22;6096798;19;2010;-63
2022/11/29 03:07:27;;;;;;;;;;;;;;;21.65;38.07;95265.03;6067044;19;1804;-63
2022/11/29 03:09:35;;;;;;;;;;;;;;;21.64;37.73;95260.72;6096512;19;2095;-63
2022/11/29 03:11:42;;;;;;;;;;;;;;;21.64;37.72;95261.53;6098822;19;2220;-63
2022/11/29 03:13:52;;;;;;;;;;;;;;;21.62;38.34;95262.78;6094964;19;1027;-63
2022/11/29 03:16:00;;;;;;;;;;;;;;;21.62;38.05;95270.81;6094776;19;2095;-63
2022/11/29 03:18:05;;;;;;;;;;;;;;;21.68;38.35;95267.28;6057018;19;2119;-63
2022/11/29 03:20:18;;;;;;;;;;;;;;;21.65;37.83;95276.59;6094633;19;2015;-65
2022/11/29 03:22:26;;;;;;;;;;;;;;;21.67;38.18;95271.81;6093803;19;1841;-63
2022/11/29 03:24:32;;;;;;;;;;;;;;;21.65;38.08;95273.06;6095875;19;2092;-63
2022/11/29 03:26:37;;;;;;;;;;;;;;;21.66;37.76;95278.22;6095571;19;1998;-63
2022/11/29 03:28:43;;;;;;;;;;;;;;;21.62;38.15;95279.66;6081077;19;2014;-63
2022/11/29 03:30:51;;;;;;;;;;;;;;;21.64;38.07;95276.78;6079633;19;2082;-63
2022/11/29 03:33:01;;;;;;;;;;;;;;;21.65;38.22;95279.25;6094057;19;2038;-63
2022/11/29 03:35:06;;;;;;;;;;;;;;;21.65;37.97;95281.94;6095010;19;2376;-63
2022/11/29 03:37:17;;;;;;;;;;;;;;;21.66;38.46;95286.22;6096055;19;2077;-63
2022/11/29 03:39:25;;;;;;;;;;;;;;;21.66;38.16;95290.78;6091818;19;2041;-63
2022/11/29 03:41:32;;;;;;;;;;;;;;;21.70;38.22;95291.16;6070382;19;1658;-65
2022/11/29 03:43:44;;;;;;;;;;;;;;;21.75;38.16;95286.00;6099470;19;2286;-64
2022/11/29 03:45:50;;;;;;;;;;;;;;;21.70;38.29;95280.47;6098225;19;2029;-64
2022/11/29 03:47:58;;;;;;;;;;;;;;;21.75;38.49;95283.31;6096834;19;2090;-60
2022/11/29 03:50:03;;;;;;;;;;;;;;;21.77;38.20;95287.44;6090138;19;2124;-61
2022/11/29 03:52:11;;;;;;;;;;;;;;;21.82;37.86;95282.25;6067257;19;2030;-68
2022/11/29 03:54:19;;;;;;;;;;;;;;;21.82;38.37;95282.25;6090817;19;2071;-61
2022/11/29 03:56:30;;;;;;;;;;;;;;;21.04;35.66;95282.25;6093613;19;2551;-70
2022/11/29 03:58:50;;;;;;;;;;;;;;;21.23;37.42;95276.09;6097141;19;2050;-71
2022/11/29 04:01:04;;;;;;;;;;;;;;;21.56;37.26;95272.47;6099041;19;2056;-69
2022/11/29 04:03:30;;;;;;;;;;;;;;;21.62;37.04;95279.66;6079786;19;2091;-69
2022/11/29 04:05:49;;;;;;;;;;;;;;;21.68;37.35;95277.97;6098732;19;2422;-70
2022/11/29 04:08:07;;;;;;;;;;;;;;;21.69;37.14;95282.31;6100140;19;1038;-63
2022/11/29 04:10:18;;;;;;;;;;;;;;;21.07;33.20;95287.19;6098577;19;1878;-61
2022/11/29 04:12:38;;;;;;;;;;;;;;;15.83;37.04;95284.94;6103015;19;2403;-61
2022/11/29 04:14:49;;;;;;;;;;;;;;;15.69;35.18;95282.19;6075634;19;1387;-61
2022/11/29 04:17:07;;;;;;;;;;;;;;;14.63;35.61;95286.00;6098317;19;2019;-62
2022/11/29 04:19:37;;;;;;;;;;;;;;;14.02;36.52;95285.53;6100505;19;1870;-61
2022/11/29 04:21:51;;;;;;;;;;;;;;;14.04;35.67;95292.28;6098365;19;2834;-62
2022/11/29 04:24:00;;;;;;;;;;;;;;;14.13;34.32;95297.59;6107486;19;1066;-62
2022/11/29 04:26:24;;;;;;;;;;;;;;;13.64;35.62;95292.22;6093322;19;2088;-62
2022/11/29 04:29:01;;;;;;;;;;;;;;;13.31;35.27;95297.38;6100617;19;2038;-61
2022/11/29 04:31:10;;;;;;;;;;;;;;;14.77;35.50;95295.94;6099101;19;1849;-60
2022/11/29 04:33:31;;;;;;;;;;;;;;;17.26;33.36;95294.81;6102114;19;2013;-61
2022/11/29 04:35:37;;;;;;;;;;;;;;;18.54;32.54;95296.06;6102045;19;2047;-63
2022/11/29 04:37:56;;;;;;;;;;;;;;;19.22;32.04;95293.69;6077881;19;1798;-62
2022/11/29 04:40:03;;;;;;;;;;;;;;;19.61;31.58;95290.44;6099771;19;1290;-68
2022/11/29 04:42:21;;;;;;;;;;;;;;;19.87;31.43;95294.22;6101790;19;1173;-68
2022/11/29 04:44:40;;;;;;;;;;;;;;;20.09;31.15;95301.06;6096311;19;2040;-68
2022/11/29 04:47:01;;;;;;;;;;;;;;;20.21;31.21;95303.97;6097481;19;1018;-68
2022/11/29 04:49:12;;;;;;;;;;;;;;;20.32;31.66;95298.03;6074482;19;1884;-68
2022/11/29 04:51:23;;;;;;;;;;;;;;;20.40;31.37;95290.88;6106974;19;1856;-61
2022/11/29 04:53:31;;;;;;;;;;;;;;;20.51;31.68;95287.59;6099959;19;1279;-62
2022/11/29 04:55:41;;;;;;;;;;;;;;;20.51;31.83;95284.94;6099184;19;1203;-62
2022/11/29 04:57:49;;;;;;;;;;;;;;;20.58;31.78;95288.44;6103077;19;2042;-61
2022/11/29 04:59:54;;;;;;;;;;;;;;;20.64;32.31;95287.63;6091287;19;2105;-61
2022/11/29 05:02:04;;;;;;;;;;;;;;;20.65;31.82;95293.78;6092879;19;2384;-68
2022/11/29 05:04:15;;;;;;;;;;;;;;;20.69;31.95;95287.84;6102309;19;1143;-61
2022/11/29 05:06:23;;;;;;;;;;;;;;;20.83;31.93;95291.31;6101486;19;1886;-62
2022/11/29 05:08:32;;;;;;;;;;;;;;;20.98;31.55;95283.09;6096059;19;1650;-62
2022/11/29 05:10:40;;;;;;;;;;;;;;;21.10;31.60;95278.75;6113408;19;1845;-62
2022/11/29 05:12:47;;;;;;;;;;;;;;;21.20;31.44;95284.53;6094896;19;2039;-61
2022/11/29 05:14:56;;;;;;;;;;;;;;;21.33;31.53;95286.31;6123836;19;1920;-61
2022/11/29 05:17:07;;;;;;;;;;;;;;;21.41;31.43;95277.28;6121066;19;1905;-61
2022/11/29 05:19:25;;;;;;;;;;;;;;;21.49;31.14;95284.25;6122103;19;1927;-59
2022/11/29 05:21:37;;;;;;;;;;;;;;;21.54;31.50;95287.09;6122727;19;1053;-61
2022/11/29 05:23:47;;;;;;;;;;;;;;;21.54;31.49;95279.91;6093322;19;1991;-61
2022/11/29 05:25:52;;;;;;;;;;;;;;;21.61;31.07;95288.72;6117997;19;1037;-61
2022/11/29 05:27:59;;;;;;;;;;;;;;;21.59;31.57;95290.78;6121268;19;998;-61
2022/11/29 05:30:04;;;;;;;;;;;;;;;21.69;31.12;95287.66;6119570;19;1246;-61
2022/11/29 05:32:18;;;;;;;;;;;;;;;21.68;31.37;95286.00;6120464;19;1842;-61
2022/11/29 05:34:39;;;;;;;;;;;;;;;21.71;31.54;95292.78;6105224;19;1417;-62
2022/11/29 05:36:45;;;;;;;;;;;;;;;21.69;31.52;95285.00;6117214;19;1337;-62
2022/11/29 05:39:03;;;;;;;;;;;;;;;21.72;31.48;95294.44;6116682;19;939;-61
2022/11/29 05:41:13;;;;;;;;;;;;;;;21.71;31.34;95298.13;6118791;19;1062;-61
2022/11/29 05:43:24;;;;;;;;;;;;;;;21.73;31.38;95296.06;6119086;19;1502;-61
2022/11/29 05:45:31;;;;;;;;;;;;;;;21.67;31.57;95293.22;6105458;19;1231;-61
2022/11/29 05:47:38;;;;;;;;;;;;;;;21.70;31.48;95291.16;6105205;19;1998;-61
2022/11/29 05:49:51;;;;;;;;;;;;;;;21.67;31.75;95303.91;6120741;19;951;-61
2022/11/29 05:51:57;;;;;;;;;;;;;;;21.65;31.69;95295.31;6119157;19;1865;-61
2022/11/29 05:54:05;;;;;;;;;;;;;;;21.65;31.94;95294.44;6121304;19;1046;-61
2022/11/29 05:56:14;;;;;;;;;;;;;;;21.66;32.06;95304.13;6119803;19;1029;-61
2022/11/29 05:58:21;;;;;;;;;;;;;;;21.60;31.75;95299.63;6095009;19;2025;-61
2022/11/29 06:00:25;;;;;;;;;;;;;;;21.62;32.09;95303.72;6120907;19;1053;-62
2022/11/29 06:02:32;;;;;;;;;;;;;;;21.58;32.22;95299.03;6119486;19;1274;-60
2022/11/29 06:04:50;;;;;;;;;;;;;;;21.59;33.28;95296.13;6119863;19;1048;-62
2022/11/29 06:07:02;;;;;;;;;;;;;;;21.59;33.12;95296.13;6119971;19;1046;-61
2022/11/29 06:09:10;;;;;;;;;;;;;;;21.60;33.12;95297.78;6092932;19;1997;-61
2022/11/29 06:11:17;;;;;;;;;;;;;;;21.56;32.94;95291.19;6119864;19;1853;-61
2022/11/29 06:13:23;;;;;;;;;;;;;;;21.62;32.59;95302.91;6121454;19;965;-61
2022/11/29 06:15:48;;;;;;;;;;;;;;;21.57;32.53;95297.34;6119123;19;987;-61
2022/11/29 06:18:00;;;;;;;;;;;;;;;21.54;32.75;95293.28;6118851;19;1770;-61
2022/11/29 06:20:22;;;;;;;;;;;;;;;21.55;32.49;95292.22;6094349;19;2105;-63
2022/11/29 06:22:37;;;;;;;;;;;;;;;21.49;32.09;95295.75;6119979;19;1101;-61
2022/11/29 06:24:46;;;;;;;;;;;;;;;21.53;32.43;95290.81;6119939;19;987;-61
2022/11/29 06:27:01;;;;;;;;;;;;;;;21.48;32.42;95304.78;6118800;19;2002;-61
2022/11/29 06:29:19;;;;;;;;;;;;;;;21.54;32.33;95300.47;6118692;19;906;-61
2022/11/29 06:31:24;;;;;;;;;;;;;;;21.50;31.89;95308.09;6096867;19;1863;-62
2022/11/29 06:33:32;;;;;;;;;;;;;;;21.50;32.22;95304.59;6119492;19;1234;-61
2022/11/29 06:35:44;;;;;;;;;;;;;;;21.49;31.80;95300.28;6120612;19;1146;-61
2022/11/29 06:37:52;;;;;;;;;;;;;;;21.54;31.92;95295.09;6119783;19;1018;-61
2022/11/29 06:39:57;;;;;;;;;;;;;;;21.52;32.20;95294.53;6120185;19;1157;-61
2022/11/29 06:42:01;;;;;;;;;;;;;;;21.49;32.42;95295.75;6112019;19;1487;-62
2022/11/29 06:44:05;;;;;;;;;;;;;;;21.52;32.53;95298.00;6102486;19;1138;-62
2022/11/29 06:46:15;;;;;;;;;;;;;;;21.50;32.76;95291.22;6118532;19;1475;-60
2022/11/29 06:48:21;;;;;;;;;;;;;;;21.55;32.48;95289.56;6120175;19;1289;-60
2022/11/29 06:50:35;;;;;;;;;;;;;;;21.57;32.79;95297.34;6119045;19;1601;-61
2022/11/29 06:52:44;;;;;;;;;;;;;;;21.57;32.58;95298.19;6117741;19;1849;-60
2022/11/29 06:54:58;;;;;;;;;;;;;;;21.53;32.44;95301.50;6092993;19;1372;-59
2022/11/29 06:57:09;;;;;;;;;;;;;;;21.46;32.38;95306.88;6118316;19;1569;-60
2022/11/29 06:59:20;;;;;;;;;;;;;;;21.41;32.44;95301.34;6117610;19;1178;-60
2022/11/29 07:01:32;;;;;;;;;;;;;;;21.45;31.90;95306.06;6118242;19;1416;-59
2022/11/29 07:03:57;;;;;;;;;;;;;;;21.47;31.81;95308.50;6117856;19;1435;-59
2022/11/29 07:06:16;;;;;;;;;;;;;;;21.41;31.97;95306.69;6090197;19;1569;-60
2022/11/29 07:08:22;;;;;;;;;;;;;;;21.41;32.19;95310.16;6117736;19;1495;-59
2022/11/29 07:10:31;;;;;;;;;;;;;;;21.42;32.19;95302.97;6117987;19;1404;-59
2022/11/29 07:12:36;;;;;;;;;;;;;;;21.43;31.86;95315.31;6117847;19;1867;-60
2022/11/29 07:14:41;;;;;;;;;;;;;;;21.41;32.10;95314.69;6117415;19;1429;-59
2022/11/29 07:16:52;;;;;;;;;;;;;;;21.42;32.13;95305.63;6098873;19;1545;-60
2022/11/29 07:19:03;;;;;;;;;;;;;;;21.44;31.79;95320.44;6118147;19;1510;-63
2022/11/29 07:21:14;;;;;;;;;;;;;;;21.39;32.35;95319.41;6118508;19;1592;-61
2022/11/29 07:23:22;;;;;;;;;;;;;;;21.36;32.24;95317.97;6119067;19;1391;-62
2022/11/29 07:25:33;;;;;;;;;;;;;;;21.33;32.59;95317.59;6119344;19;1035;-62
2022/11/29 07:27:41;;;;;;;;;;;;;;;21.41;32.48;95320.03;6106139;19;1111;-63
2022/11/29 07:29:51;;;;;;;;;;;;;;;21.42;32.11;95317.16;6105090;19;1938;-62
2022/11/29 07:32:03;;;;;;;;;;;;;;;21.40;32.25;95324.56;6117805;19;1850;-61
2022/11/29 07:34:14;;;;;;;;;;;;;;;21.44;32.29;95322.28;6118731;19;1038;-62
2022/11/29 07:36:23;;;;;;;;;;;;;;;21.41;32.31;95323.53;6117826;19;1531;-62
2022/11/29 07:38:31;;;;;;;;;;;;;;;21.41;32.57;95320.84;6118436;19;1113;-62
2022/11/29 07:40:43;;;;;;;;;;;;;;;21.42;32.21;95327.84;6098068;19;2369;-62
2022/11/29 07:42:51;;;;;;;;;;;;;;;21.43;32.64;95329.50;6124889;19;1475;-62
2022/11/29 07:45:01;;;;;;;;;;;;;;;21.45;32.50;95330.13;6125115;19;1289;-62
2022/11/29 07:47:04;;;;;;;;;;;;;;;21.44;32.46;95324.97;6123554;19;1262;-61
2022/11/29 07:49:11;;;;;;;;;;;;;;;21.45;32.84;95327.44;6124667;19;1356;-61
2022/11/29 07:51:15;;;;;;;;;;;;;;;21.45;32.84;95327.44;6096033;19;1850;-62
2022/11/29 07:53:19;;;;;;;;;;;;;;;21.46;33.09;95330.94;6124986;19;1129;-62
2022/11/29 07:55:24;;;;;;;;;;;;;;;21.44;33.13;95328.47;6122899;19;1086;-62
2022/11/29 07:57:30;;;;;;;;;;;;;;;21.47;32.92;95329.91;6124709;19;1058;-62
2022/11/29 07:59:33;;;;;;;;;;;;;;;21.45;33.23;95327.44;6124280;19;1033;-62
2022/11/29 08:01:36;;;;;;;;;;;;;;;21.49;33.11;95325.16;6109982;19;1335;-63
2022/11/29 08:03:40;;;;;;;;;;;;;;;21.53;33.06;95322.88;6108175;19;2080;-63
2022/11/29 08:05:46;;;;;;;;;;;;;;;21.51;33.10;95331.09;6121937;19;1037;-69
2022/11/29 08:07:50;;;;;;;;;;;;;;;21.49;32.86;95333.19;6124795;19;1041;-70
2022/11/29 08:09:53;;;;;;;;;;;;;;;21.49;32.95;95335.88;6124542;19;969;-69
2022/11/29 08:11:57;;;;;;;;;;;;;;;21.44;32.96;95331.13;6123393;19;1852;-69
2022/11/29 08:14:03;;;;;;;;;;;;;;;21.49;32.62;95333.19;6097317;19;1265;-69
2022/11/29 08:16:07;;;;;;;;;;;;;;;21.48;32.59;95328.84;6124321;19;1093;-71
2022/11/29 08:18:10;;;;;;;;;;;;;;;21.50;32.74;95329.47;6123808;19;1042;-61
2022/11/29 08:20:15;;;;;;;;;;;;;;;21.52;32.43;95331.94;6123633;19;982;-69
2022/11/29 08:22:18;;;;;;;;;;;;;;;21.50;32.43;95329.47;6124249;19;1112;-68
2022/11/29 08:24:21;;;;;;;;;;;;;;;21.48;32.81;95323.50;6111525;19;1209;-68
2022/11/29 08:26:25;;;;;;;;;;;;;;;21.46;32.98;95333.59;6110844;19;1228;-68
2022/11/29 08:28:28;;;;;;;;;;;;;;;21.49;32.62;95329.69;6123466;19;985;-68
2022/11/29 08:30:34;;;;;;;;;;;;;;;21.49;32.65;95330.50;6121434;19;1423;-67
2022/11/29 08:32:37;;;;;;;;;;;;;;;21.49;32.67;95317.16;6122179;19;1863;-68
2022/11/29 08:34:41;;;;;;;;;;;;;;;21.49;32.48;95319.00;6123152;19;1022;-67
2022/11/29 08:36:44;;;;;;;;;;;;;;;21.50;32.74;95329.47;6095956;19;1411;-67
2022/11/29 08:38:48;;;;;;;;;;;;;;;21.49;32.34;95327.03;6123400;19;998;-68
2022/11/29 08:40:51;;;;;;;;;;;;;;;21.51;32.42;95332.97;6123361;19;1041;-68
2022/11/29 08:42:58;;;;;;;;;;;;;;;21.49;32.73;95324.34;6122861;19;1018;-69
2022/11/29 08:45:01;;;;;;;;;;;;;;;21.51;32.61;95322.25;6123907;19;1022;-67
2022/11/29 08:49:23;;;;;;;;;;;;;;;21.43;32.35;95328.69;6110082;19;2322;-63
2022/11/29 08:51:26;;;;;;;;;;;;;;;21.41;32.36;95328.88;6119941;19;1849;-61
2022/11/29 08:53:43;;;;;;;;;;;;;;;21.44;32.53;95333.00;6122813;19;1931;-61
2022/11/29 08:55:46;;;;;;;;;;;;;;;21.39;32.32;95325.59;6121237;19;1018;-62
2022/11/29 08:57:50;;;;;;;;;;;;;;;21.42;32.25;95324.34;6121955;19;1046;-62
2022/11/29 08:59:53;;;;;;;;;;;;;;;21.43;32.24;95334.03;6095891;19;1334;-61
2022/11/29 09:01:56;;;;;;;;;;;;;;;21.42;32.23;95327.03;6121918;19;1348;-61
2022/11/29 09:04:05;;;;;;;;;;;;;;;21.42;32.21;95329.69;6121066;19;1069;-61
2022/11/29 09:06:09;;;;;;;;;;;;;;;21.40;32.56;95321.09;6122455;19;1017;-62
2022/11/29 09:08:13;;;;;;;;;;;;;;;21.40;32.32;95318.41;6120449;19;985;-62
2022/11/29 09:10:16;;;;;;;;;;;;;;;21.35;32.32;95302.16;6106345;19;1130;-63
2022/11/29 09:12:19;;;;;;;;;;;;;;;21.38;32.23;95317.78;6113546;19;2051;-62
2022/11/29 09:14:23;;;;;;;;;;;;;;;21.37;32.65;95311.63;6122337;19;955;-62
2022/11/29 09:16:27;;;;;;;;;;;;;;;21.34;32.41;95312.03;6122039;19;1066;-61
2022/11/29 09:18:30;;;;;;;;;;;;;;;21.37;32.75;95313.44;6122240;19;1058;-62
2022/11/29 09:20:36;;;;;;;;;;;;;;;21.34;32.43;95309.38;6119674;19;1021;-62
2022/11/29 09:22:39;;;;;;;;;;;;;;;21.34;32.65;95311.19;6094471;19;1167;-61
2022/11/29 09:24:45;;;;;;;;;;;;;;;21.33;32.26;95310.38;6121984;19;1287;-60
2022/11/29 09:26:48;;;;;;;;;;;;;;;21.33;32.44;95306.91;6121818;19;1021;-61
2022/11/29 09:28:51;;;;;;;;;;;;;;;21.31;32.09;95307.09;6121949;19;1058;-61
2022/11/29 09:30:55;;;;;;;;;;;;;;;21.30;32.44;95308.13;6119907;19;1062;-60
2022/11/29 09:32:58;;;;;;;;;;;;;;;21.27;32.26;95307.75;6104216;19;1860;-62
2022/11/29 09:35:02;;;;;;;;;;;;;;;21.27;32.17;95297.88;6114095;19;2045;-61
2022/11/29 09:37:08;;;;;;;;;;;;;;;21.27;32.46;95299.72;6120563;19;1243;-60
2022/11/29 09:39:12;;;;;;;;;;;;;;;21.29;32.30;95295.81;6120372;19;1054;-61
2022/11/29 09:41:23;;;;;;;;;;;;;;;21.25;32.55;95294.56;6120813;19;1046;-61
2022/11/29 09:43:31;;;;;;;;;;;;;;;21.24;32.46;95295.59;6121631;19;1062;-60
2022/11/29 09:45:38;;;;;;;;;;;;;;;21.26;32.13;95290.06;6093710;19;1651;-61
2022/11/29 09:47:52;;;;;;;;;;;;;;;21.26;32.58;95287.41;6120115;19;963;-61
2022/11/29 09:50:02;;;;;;;;;;;;;;;21.25;32.46;95293.75;6120870;19;1057;-61
2022/11/29 09:52:14;;;;;;;;;;;;;;;21.21;32.18;95280.00;6120668;19;1849;-60
2022/11/29 09:54:23;;;;;;;;;;;;;;;21.17;32.46;95266.25;6120209;19;1423;-61
2022/11/29 09:56:30;;;;;;;;;;;;;;;21.18;33.09;95281.22;6094465;19;1798;-59
2022/11/29 09:58:37;;;;;;;;;;;;;;;21.16;32.69;95277.91;6119454;19;1628;-60
2022/11/29 10:00:45;;;;;;;;;;;;;;;21.20;32.69;95273.03;6120918;19;1066;-60
2022/11/29 10:02:51;;;;;;;;;;;;;;;21.23;32.85;95273.41;6119134;19;1381;-63
2022/11/29 10:04:55;;;;;;;;;;;;;;;21.26;33.35;95268.69;6118852;19;1061;-62
2022/11/29 10:07:02;;;;;;;;;;;;;;;21.21;33.19;95267.44;6106256;19;2197;-62
2022/11/29 10:09:14;;;;;;;;;;;;;;;21.23;33.10;95265.41;6113798;19;1730;-62
2022/11/29 10:11:20;;;;;;;;;;;;;;;21.26;32.97;95258.81;6120620;19;1390;-61
2022/11/29 10:13:26;;;;;;;;;;;;;;;21.29;33.08;95257.56;6119123;19;1857;-62
2022/11/29 10:15:30;;;;;;;;;;;;;;;21.27;33.40;95259.63;6119772;19;1049;-62
2022/11/29 10:17:38;;;;;;;;;;;;;;;21.27;33.58;95256.97;6120208;19;1133;-62
2022/11/29 10:19:45;;;;;;;;;;;;;;;21.30;33.05;95253.88;6094051;19;1892;-60
2022/11/29 10:21:56;;;;;;;;;;;;;;;21.22;33.74;95255.72;6119370;19;1072;-61
2022/11/29 10:24:01;;;;;;;;;;;;;;;21.36;33.33;95253.84;6119041;19;1006;-68
2022/11/29 10:26:07;;;;;;;;;;;;;;;21.41;33.36;95255.88;6120436;19;1360;-68
2022/11/29 10:28:12;;;;;;;;;;;;;;;21.49;33.54;95246.81;6120751;19;966;-61
2022/11/29 10:30:16;;;;;;;;;;;;;;;21.60;33.26;95246.97;6092467;19;1793;-68
2022/11/29 10:32:21;;;;;;;;;;;;;;;21.69;33.21;95252.91;6120069;19;1840;-67
2022/11/29 10:34:25;;;;;;;;;;;;;;;21.77;33.13;95254.50;6119316;19;1081;-69
2022/11/29 10:36:31;;;;;;;;;;;;;;;21.82;33.31;95247.47;6119919;19;1104;-60
2022/11/29 10:38:34;;;;;;;;;;;;;;;21.88;32.80;95248.47;6120646;19;1040;-62
2022/11/29 10:40:41;;;;;;;;;;;;;;;21.90;32.87;95244.53;6105939;19;1777;-62
2022/11/29 10:42:51;;;;;;;;;;;;;;;21.94;33.23;95244.13;6105156;19;2075;-61
2022/11/29 10:44:55;;;;;;;;;;;;;;;21.92;33.10;95249.69;6120498;19;1210;-62
2022/11/29 10:46:59;;;;;;;;;;;;;;;21.97;33.37;95238.38;6118662;19;1594;-62
2022/11/29 10:49:04;;;;;;;;;;;;;;;22.00;32.93;95243.31;6118416;19;1119;-61
2022/11/29 10:51:16;;;;;;;;;;;;;;;21.95;33.37;95241.28;6120438;19;1025;-62
2022/11/29 10:53:20;;;;;;;;;;;;;;;21.96;33.24;95245.56;6092832;19;1845;-62
2022/11/29 10:55:24;;;;;;;;;;;;;;;22.04;33.26;95245.31;6119596;19;1033;-62
2022/11/29 10:57:27;;;;;;;;;;;;;;;21.97;33.41;95238.38;6119924;19;1018;-62
2022/11/29 10:59:33;;;;;;;;;;;;;;;21.88;33.51;95235.09;6118406;19;1117;-62
2022/11/29 11:01:38;;;;;;;;;;;;;;;21.82;33.26;95235.94;6118234;19;1392;-62
2022/11/29 11:03:43;;;;;;;;;;;;;;;21.80;33.64;95235.38;6104520;19;1027;-62
2022/11/29 11:05:57;;;;;;;;;;;;;;;21.82;33.49;95238.63;6106418;19;1301;-62
2022/11/29 11:08:04;;;;;;;;;;;;;;;21.74;33.85;95233.53;6120014;19;1033;-62
2022/11/29 11:10:18;;;;;;;;;;;;;;;21.75;33.99;95235.19;6119121;19;1002;-62
2022/11/29 11:12:21;;;;;;;;;;;;;;;21.76;33.65;95231.47;6118065;19;1863;-62
2022/11/29 11:14:26;;;;;;;;;;;;;;;21.75;33.62;95229.81;6115799;19;1017;-62
2022/11/29 11:16:32;;;;;;;;;;;;;;;21.73;34.10;95230.03;6092601;19;1478;-62